Time;durP1;ratioP1;P1;durP2;ratioP2;P2;SDS_P1;SDS_P2;PMS_P1;PMS_P2;Temp;Humidity;BMP_temperature;BMP_pressure;BME280_temperature;BME280_humidity;BME280_pressure;Samples;Min_cycle;Max_cycle;Signal;HPM_P1;HPM_P2
2021/12/13 00:00:12;;;;;;;10.43;7.05;;;9.40;99.90;;;;;;5081853;28;20040;-85
2021/12/13 00:02:50;;;;;;;9.68;6.95;;;9.50;99.90;;;;;;5081855;28;20079;-85
2021/12/13 00:05:34;;;;;;;8.90;6.55;;;9.50;99.90;;;;;;5081756;28;20024;-85
2021/12/13 00:08:04;;;;;;;9.00;6.63;;;9.40;99.90;;;;;;5082235;28;20078;-85
2021/12/13 00:10:51;;;;;;;7.88;5.88;;;9.40;99.90;;;;;;5081552;28;20039;-85
2021/12/13 00:13:27;;;;;;;10.68;6.20;;;9.40;99.90;;;;;;5079386;28;20305;-85
2021/12/13 00:15:59;;;;;;;10.70;6.10;;;9.40;99.90;;;;;;5080783;28;20047;-85
2021/12/13 00:18:30;;;;;;;9.57;6.65;;;9.40;99.90;;;;;;5080300;28;20328;-85
2021/12/13 00:21:08;;;;;;;10.43;7.38;;;9.30;99.90;;;;;;5079926;28;20020;-85
2021/12/13 00:23:42;;;;;;;8.68;6.90;;;9.30;99.90;;;;;;5080534;28;20024;-85
2021/12/13 00:26:08;;;;;;;;;;;9.40;99.90;;;;;;5079824;28;20029;-85
2021/12/13 00:28:39;;;;;;;10.00;7.35;;;9.30;99.90;;;;;;5080224;28;19961;-85
2021/12/13 00:31:31;;;;;;;9.80;7.35;;;9.40;99.90;;;;;;5082145;28;20040;-85
2021/12/13 00:34:08;;;;;;;12.05;7.50;;;9.40;99.90;;;;;;5082355;28;20042;-85
2021/12/13 00:36:43;;;;;;;11.10;7.80;;;9.40;99.90;;;;;;5064363;28;20016;-86
2021/12/13 00:39:17;;;;;;;14.80;7.57;;;9.40;99.90;;;;;;5081396;28;20024;-85
2021/12/13 00:41:44;;;;;;;;;;;9.30;99.90;;;;;;5064786;28;20048;-85
2021/12/13 00:44:19;;;;;;;9.30;7.40;;;9.20;99.90;;;;;;5074950;28;19972;-84
2021/12/13 00:46:49;;;;;;;8.98;6.88;;;9.20;99.90;;;;;;5095602;28;20048;-85
2021/12/13 00:49:18;;;;;;;9.30;6.97;;;9.20;99.90;;;;;;5095895;28;20035;-85
2021/12/13 00:51:48;;;;;;;9.02;6.40;;;9.20;99.90;;;;;;5095859;28;20008;-85
2021/12/13 00:54:22;;;;;;;10.50;7.30;;;9.20;99.90;;;;;;5091119;28;20012;-85
2021/12/13 00:56:54;;;;;;;9.60;6.43;;;9.00;99.90;;;;;;5095543;28;20024;-85
2021/12/13 00:59:34;;;;;;;10.20;6.50;;;9.10;99.90;;;;;;5095357;28;20043;-85
2021/12/13 01:02:08;;;;;;;7.90;6.13;;;9.10;99.90;;;;;;5095614;28;20042;-85
2021/12/13 01:05:10;;;;;;;8.07;6.78;;;9.20;99.90;;;;;;5095539;28;20059;-85
2021/12/13 01:08:03;;;;;;;8.68;6.38;;;9.10;99.90;;;;;;5092822;28;20095;-83
2021/12/13 01:10:38;;;;;;;9.80;6.60;;;9.20;99.90;;;;;;5077776;28;20021;-85
2021/12/13 01:13:14;;;;;;;10.88;6.28;;;9.10;99.90;;;;;;5095405;28;20047;-85
2021/12/13 01:15:48;;;;;;;9.43;6.68;;;9.00;99.90;;;;;;5095219;28;20028;-85
2021/12/13 01:18:27;;;;;;;12.00;7.85;;;9.00;99.90;;;;;;5086857;28;20020;-85
2021/12/13 01:21:11;;;;;;;16.35;7.07;;;9.10;99.90;;;;;;5080682;28;20025;-84
2021/12/13 01:23:44;;;;;;;14.43;7.25;;;9.10;99.90;;;;;;5081166;28;20073;-85
2021/12/13 01:26:27;;;;;;;9.57;5.88;;;9.00;99.90;;;;;;5080967;28;20066;-85
2021/12/13 01:29:06;;;;;;;17.55;6.20;;;8.90;99.90;;;;;;5080174;28;20028;-85
2021/12/13 01:31:49;;;;;;;7.10;5.40;;;8.90;99.90;;;;;;5081038;28;20012;-85
2021/12/13 01:34:16;;;;;;;17.10;6.20;;;8.90;99.90;;;;;;5080969;28;20088;-85
2021/12/13 01:37:07;;;;;;;22.38;6.20;;;8.90;99.90;;;;;;5083398;28;20021;-85
2021/12/13 01:39:35;;;;;;;13.55;4.88;;;8.80;99.90;;;;;;5085115;28;20020;-85
2021/12/13 01:42:10;;;;;;;6.18;4.47;;;8.70;99.90;;;;;;5084528;28;20320;-85
2021/12/13 01:44:41;;;;;;;9.85;5.00;;;8.70;99.90;;;;;;5083520;28;20232;-85
2021/12/13 01:47:22;;;;;;;8.27;4.63;;;8.80;99.90;;;;;;5083092;28;20263;-85
2021/12/13 01:49:52;;;;;;;8.65;5.00;;;8.80;99.90;;;;;;5083028;28;20039;-85
2021/12/13 01:52:26;;;;;;;5.82;4.75;;;8.90;99.90;;;;;;5064857;28;20043;-87
2021/12/13 01:54:56;;;;;;;8.35;4.35;;;8.90;99.90;;;;;;5065497;28;20036;-85
2021/12/13 01:57:27;;;;;;;12.13;5.10;;;8.90;99.90;;;;;;5083128;28;20312;-85
2021/12/13 02:00:09;;;;;;;7.10;5.43;;;8.80;99.90;;;;;;5084004;28;20056;-85
2021/12/13 02:02:41;;;;;;;13.55;4.80;;;8.70;99.90;;;;;;5084420;28;20021;-85
2021/12/13 02:05:07;;;;;;;10.27;5.15;;;8.70;99.90;;;;;;5084276;28;20075;-85
2021/12/13 02:08:00;;;;;;;8.35;5.00;;;8.80;99.90;;;;;;5083479;28;20308;-86
2021/12/13 02:10:29;;;;;;;9.95;5.13;;;8.80;99.90;;;;;;5080240;28;20026;-85
2021/12/13 02:13:01;;;;;;;11.48;5.22;;;8.90;99.90;;;;;;5083944;28;20031;-85
2021/12/13 02:18:17;;;;;;;11.68;5.10;;;9.00;99.90;;;;;;5084023;28;20023;-85
2021/12/13 02:20:52;;;;;;;9.93;5.75;;;8.90;99.90;;;;;;5083746;28;20211;-86
2021/12/13 02:23:20;;;;;;;11.38;5.95;;;9.00;99.90;;;;;;5066221;28;20017;-86
2021/12/13 02:25:49;;;;;;;6.85;5.07;;;8.90;99.90;;;;;;5083560;28;20028;-85
2021/12/13 02:28:19;;;;;;;12.95;6.20;;;9.00;99.90;;;;;;5083134;28;20039;-86
2021/12/13 02:30:54;;;;;;;6.65;5.25;;;8.90;99.90;;;;;;5083961;28;20031;-86
2021/12/13 02:33:34;;;;;;;21.40;6.18;;;8.90;99.90;;;;;;5083688;28;20028;-86
2021/12/13 02:36:07;;;;;;;11.23;6.00;;;8.90;99.90;;;;;;5083755;28;20322;-86
2021/12/13 02:38:35;;;;;;;14.30;5.93;;;8.80;99.90;;;;;;5065311;28;20058;-85
2021/12/13 02:41:03;;;;;;;9.55;5.50;;;8.80;99.90;;;;;;5083726;28;20091;-85
2021/12/13 02:43:35;;;;;;;8.60;5.35;;;8.80;99.90;;;;;;5086309;28;20024;-86
2021/12/13 02:46:01;;;;;;;7.13;5.38;;;8.80;99.90;;;;;;5083293;28;20116;-86
2021/12/13 02:48:40;;;;;;;9.88;5.47;;;8.70;99.90;;;;;;5079318;28;20036;-86
2021/12/13 02:51:16;;;;;;;9.80;5.75;;;8.70;99.90;;;;;;5081405;28;20080;-85
2021/12/13 02:53:55;;;;;;;17.75;5.88;;;8.70;99.90;;;;;;5083661;28;20043;-86
2021/12/13 02:56:26;;;;;;;13.10;6.47;;;8.70;99.90;;;;;;5082908;28;20078;-86
2021/12/13 02:58:53;;;;;;;16.42;6.00;;;8.70;99.90;;;;;;5082964;28;20024;-86
2021/12/13 03:01:30;;;;;;;10.40;5.95;;;8.70;99.90;;;;;;5082523;28;20021;-86
2021/12/13 03:04:00;;;;;;;9.40;6.50;;;8.80;99.90;;;;;;5082824;28;20087;-85
2021/12/13 03:06:31;;;;;;;16.65;7.60;;;8.90;99.90;;;;;;5083193;28;20062;-86
2021/12/13 03:09:00;;;;;;;18.92;7.43;;;8.80;99.90;;;;;;5083486;28;20401;-86
2021/12/13 03:11:33;;;;;;;15.48;7.93;;;8.80;99.90;;;;;;5065279;28;20209;-85
2021/12/13 03:14:28;;;;;;;15.50;7.40;;;8.80;99.90;;;;;;5083143;28;20311;-85
2021/12/13 03:17:29;;;;;;;10.73;7.78;;;8.80;99.90;;;;;;5080879;28;20028;-86
2021/12/13 03:20:24;;;;;;;14.60;8.95;;;8.80;99.90;;;;;;5069620;28;20044;-86
2021/12/13 03:23:28;;;;;;;20.02;8.82;;;8.80;99.90;;;;;;5081507;28;20051;-86
2021/12/13 03:26:18;;;;;;;19.50;8.85;;;8.80;99.90;;;;;;5064663;28;20020;-86
2021/12/13 03:29:08;;;;;;;19.55;9.77;;;8.80;99.90;;;;;;5082850;28;20033;-86
2021/12/13 03:31:44;;;;;;;16.67;9.98;;;8.80;99.90;;;;;;5082457;28;20020;-86
2021/12/13 03:34:22;;;;;;;15.50;9.70;;;8.70;99.90;;;;;;5064775;28;20043;-86
2021/12/13 03:37:12;;;;;;;19.85;10.80;;;8.70;99.90;;;;;;5082769;28;20091;-86
2021/12/13 03:39:45;;;;;;;15.38;9.95;;;8.70;99.90;;;;;;5082262;28;20059;-86
2021/12/13 03:42:27;;;;;;;16.13;10.73;;;8.70;99.90;;;;;;5081216;28;20023;-86
2021/12/13 03:44:58;;;;;;;23.17;11.18;;;8.70;99.90;;;;;;5080639;28;20042;-86
2021/12/13 03:47:35;;;;;;;15.57;10.50;;;8.70;99.90;;;;;;5062800;28;20106;-86
2021/12/13 03:50:14;;;;;;;15.32;10.48;;;8.70;99.90;;;;;;5081083;28;20051;-85
2021/12/13 03:52:42;;;;;;;14.02;9.77;;;8.70;99.90;;;;;;5062656;28;20029;-86
2021/12/13 03:55:09;;;;;;;15.40;10.63;;;8.60;99.90;;;;;;5081406;28;20236;-86
2021/12/13 03:57:42;;;;;;;18.15;11.57;;;8.70;99.90;;;;;;5082032;28;20030;-86
2021/12/13 04:00:12;;;;;;;15.63;11.38;;;8.70;99.90;;;;;;5063532;28;20028;-86
2021/12/13 04:02:40;;;;;;;20.80;11.43;;;8.60;99.90;;;;;;5063901;28;20102;-86
2021/12/13 04:05:12;;;;;;;22.17;13.15;;;8.70;99.90;;;;;;5081784;28;20313;-86
2021/12/13 04:07:42;;;;;;;19.17;11.93;;;8.70;99.90;;;;;;5082188;28;20032;-86
2021/12/13 04:10:30;;;;;;;16.05;11.15;;;8.70;99.90;;;;;;5081478;28;20316;-86
2021/12/13 04:12:59;;;;;;;18.02;11.70;;;8.80;99.90;;;;;;5081296;28;20103;-85
2021/12/13 04:15:46;;;;;;;14.80;10.45;;;8.80;99.90;;;;;;5081603;28;20028;-85
2021/12/13 04:18:29;;;;;;;18.83;10.88;;;8.70;99.90;;;;;;5080726;28;20016;-85
2021/12/13 04:21:05;;;;;;;17.08;10.60;;;8.70;99.90;;;;;;5063088;28;20032;-85
2021/12/13 04:23:32;;;;;;;14.10;10.65;;;8.70;99.90;;;;;;5082030;28;20036;-85
2021/12/13 04:26:01;;;;;;;13.45;9.55;;;8.80;99.90;;;;;;5081625;28;20028;-85
2021/12/13 04:28:42;;;;;;;16.80;10.68;;;8.80;99.90;;;;;;5081047;28;20071;-85
2021/12/13 04:31:13;;;;;;;14.35;10.68;;;8.80;99.90;;;;;;5077136;28;20182;-86
2021/12/13 04:33:50;;;;;;;20.25;10.57;;;8.70;99.90;;;;;;5080713;28;20084;-85
2021/12/13 04:36:29;;;;;;;16.70;11.98;;;8.70;99.90;;;;;;5063640;28;20315;-85
2021/12/13 04:39:05;;;;;;;19.98;11.25;;;8.80;99.90;;;;;;5081464;28;20024;-85
2021/12/13 04:41:49;;;;;;;19.77;9.77;;;8.80;99.90;;;;;;5063225;28;20020;-84
2021/12/13 04:44:31;;;;;;;17.40;10.38;;;8.80;99.90;;;;;;5063603;28;20024;-85
2021/12/13 04:47:01;;;;;;;11.80;9.38;;;8.80;99.90;;;;;;5080858;28;20260;-85
2021/12/13 04:49:31;;;;;;;17.48;10.90;;;8.80;99.90;;;;;;5063047;28;20320;-85
2021/12/13 04:52:02;;;;;;;15.27;9.75;;;8.80;99.90;;;;;;5063164;28;20020;-85
2021/12/13 04:54:33;;;;;;;21.00;11.32;;;8.70;99.90;;;;;;5077007;28;20094;-85
2021/12/13 04:57:00;;;;;;;24.95;11.35;;;8.60;99.90;;;;;;5079925;28;20025;-86
2021/12/13 04:59:28;;;;;;;16.27;10.55;;;8.70;99.90;;;;;;5062218;28;20079;-85
2021/12/13 05:01:57;;;;;;;15.73;10.35;;;8.80;99.90;;;;;;5080122;28;20025;-85
2021/12/13 05:04:26;;;;;;;32.05;10.75;;;8.80;99.90;;;;;;5080116;28;20059;-85
2021/12/13 05:06:53;;;;;;;78.07;16.23;;;8.80;99.90;;;;;;5080283;28;20021;-85
2021/12/13 05:09:21;;;;;;;42.70;11.68;;;8.70;99.90;;;;;;5081538;28;20073;-85
2021/12/13 05:11:49;;;;;;;12.93;8.77;;;8.70;99.90;;;;;;5080357;28;20055;-85
2021/12/13 05:14:27;;;;;;;17.75;9.43;;;8.70;99.90;;;;;;5080422;28;20066;-85
2021/12/13 05:16:56;;;;;;;15.70;8.63;;;8.60;99.90;;;;;;5080885;28;20029;-85
2021/12/13 05:19:53;;;;;;;21.42;8.80;;;8.50;99.90;;;;;;5061238;28;20103;-85
2021/12/13 05:22:22;;;;;;;21.83;9.00;;;8.50;99.90;;;;;;5079465;28;20036;-85
2021/12/13 05:24:53;;;;;;;17.15;9.50;;;8.50;99.90;;;;;;5080913;28;20021;-85
2021/12/13 05:27:30;;;;;;;19.75;9.63;;;8.50;99.90;;;;;;5080758;28;20040;-85
2021/12/13 05:30:08;;;;;;;27.58;10.13;;;8.50;99.90;;;;;;5062672;28;20031;-85
2021/12/13 05:32:39;;;;;;;26.40;9.88;;;8.50;99.90;;;;;;5080545;28;20017;-85
2021/12/13 05:35:20;;;;;;;16.75;9.80;;;8.40;99.90;;;;;;5080117;28;20140;-85
2021/12/13 05:38:08;;;;;;;27.58;10.40;;;8.40;99.90;;;;;;5078597;28;20283;-85
2021/12/13 05:40:45;;;;;;;17.35;9.82;;;8.40;99.90;;;;;;5079020;28;20016;-85
2021/12/13 05:43:25;;;;;;;15.90;10.18;;;8.50;99.90;;;;;;5079321;28;20028;-85
2021/12/13 05:46:19;;;;;;;12.60;8.45;;;8.60;99.90;;;;;;5078770;28;20044;-85
2021/12/13 05:48:53;;;;;;;21.15;9.38;;;8.50;99.90;;;;;;5077567;28;20032;-85
2021/12/13 05:51:30;;;;;;;18.45;10.07;;;8.50;99.90;;;;;;5061852;28;20017;-85
2021/12/13 05:54:10;;;;;;;16.02;9.90;;;8.50;99.90;;;;;;5080737;28;20074;-85
2021/12/13 05:56:57;;;;;;;19.92;9.52;;;8.50;99.90;;;;;;5062404;28;20040;-85
2021/12/13 05:59:25;;;;;;;14.25;8.52;;;8.50;99.90;;;;;;5080101;28;20033;-85
2021/12/13 06:02:11;;;;;;;16.77;8.73;;;8.40;99.90;;;;;;5080960;28;20195;-83
2021/12/13 06:04:57;;;;;;;16.27;9.07;;;8.40;99.90;;;;;;5080125;28;20090;-85
2021/12/13 06:07:32;;;;;;;17.50;8.98;;;8.40;99.90;;;;;;5080293;28;20036;-84
2021/12/13 06:10:07;;;;;;;16.67;10.18;;;8.30;99.90;;;;;;5080254;28;20048;-85
2021/12/13 06:12:36;;;;;;;37.78;11.20;;;8.30;99.90;;;;;;5079888;28;20024;-86
2021/12/13 06:15:17;;;;;;;23.88;12.90;;;8.30;99.90;;;;;;5078548;28;20332;-85
2021/12/13 06:17:55;;;;;;;21.45;11.60;;;8.30;99.90;;;;;;5080501;28;20026;-85
2021/12/13 06:20:37;;;;;;;45.83;14.77;;;8.20;99.90;;;;;;5080672;28;20020;-85
2021/12/13 06:23:13;;;;;;;1435.80;219.25;;;8.20;99.90;;;;;;5076763;28;20039;-85
2021/12/13 06:25:44;;;;;;;29.27;13.90;;;8.20;99.90;;;;;;5065562;28;20137;-85
2021/12/13 06:28:22;;;;;;;26.95;13.45;;;8.20;99.90;;;;;;5074187;28;20044;-85
2021/12/13 06:30:57;;;;;;;28.75;13.55;;;8.30;99.90;;;;;;5077063;28;20050;-85
2021/12/13 06:33:27;;;;;;;22.42;11.32;;;8.30;99.90;;;;;;5077317;28;20511;-85
2021/12/13 06:36:00;;;;;;;56.13;13.73;;;8.20;99.90;;;;;;5072996;28;20025;-85
2021/12/13 06:38:34;;;;;;;23.15;12.45;;;8.20;99.90;;;;;;5059182;28;20141;-85
2021/12/13 06:41:12;;;;;;;24.30;10.82;;;8.10;99.90;;;;;;5055143;28;20031;-85
2021/12/13 06:43:43;;;;;;;17.52;8.50;;;8.10;99.90;;;;;;5074092;28;20020;-86
2021/12/13 06:46:24;;;;;;;19.25;11.68;;;8.00;99.90;;;;;;5072638;28;20036;-85
2021/12/13 06:48:58;;;;;;;44.08;17.40;;;8.10;99.90;;;;;;5086486;28;20102;-85
2021/12/13 06:51:37;;;;;;;28.67;18.33;;;8.00;99.90;;;;;;5084564;28;20013;-85
2021/12/13 06:54:21;;;;;;;21.02;13.80;;;8.10;99.90;;;;;;5083327;28;20084;-85
2021/12/13 06:56:57;;;;;;;23.20;13.48;;;8.30;99.90;;;;;;5077311;28;20067;-86
2021/12/13 06:59:24;;;;;;;51.40;9.35;;;8.40;99.90;;;;;;5072008;28;20028;-86
2021/12/13 07:02:18;;;;;;;29.20;8.27;;;8.40;99.90;;;;;;5072106;28;20025;-87
2021/12/13 07:04:47;;;;;;;34.15;7.85;;;8.30;99.90;;;;;;5074923;28;20025;-85
2021/12/13 07:07:15;;;;;;;19.25;7.38;;;8.30;99.90;;;;;;5072092;28;20031;-85
2021/12/13 07:09:55;;;;;;;22.80;7.63;;;8.30;99.90;;;;;;5080202;28;20070;-86
2021/12/13 07:12:23;;;;;;;14.65;7.80;;;8.30;99.90;;;;;;5084120;28;20027;-86
2021/12/13 07:14:49;;;;;;;13.75;7.97;;;8.20;99.90;;;;;;5083502;28;20024;-85
2021/12/13 07:17:27;;;;;;;51.33;8.40;;;8.30;99.90;;;;;;5083761;28;20250;-84
2021/12/13 07:19:54;;;;;;;33.28;6.45;;;8.30;99.90;;;;;;5083046;28;20020;-86
2021/12/13 07:22:23;;;;;;;25.70;8.63;;;8.10;99.90;;;;;;5065304;28;20082;-85
2021/12/13 07:25:03;;;;;;;18.70;7.00;;;8.10;99.90;;;;;;5077932;28;20105;-90
2021/12/13 07:27:34;;;;;;;33.25;7.95;;;8.10;99.90;;;;;;5072256;28;20024;-90
2021/12/13 07:30:25;;;;;;;24.83;6.72;;;8.20;99.90;;;;;;5072704;28;20041;-90
2021/12/13 07:33:07;;;;;;;14.07;5.60;;;8.10;99.90;;;;;;5071823;28;20385;-90
2021/12/13 07:35:43;;;;;;;27.83;5.70;;;8.00;99.90;;;;;;5071731;28;20389;-89
2021/12/13 07:38:10;;;;;;;11.25;6.45;;;8.10;99.90;;;;;;5072507;28;20481;-90
2021/12/13 07:40:39;;;;;;;13.32;6.07;;;8.10;99.90;;;;;;5072221;28;20037;-90
2021/12/13 07:43:19;;;;;;;15.23;5.53;;;8.00;99.90;;;;;;5072347;28;20024;-90
2021/12/13 07:45:52;;;;;;;11.07;4.93;;;8.00;99.90;;;;;;5074315;28;20036;-89
2021/12/13 07:48:25;;;;;;;7.75;4.45;;;8.00;99.90;;;;;;5054940;28;20071;-90
2021/12/13 07:51:00;;;;;;;22.77;5.43;;;8.00;99.90;;;;;;5073305;28;20063;-91
2021/12/13 07:53:36;;;;;;;10.10;5.45;;;8.00;99.90;;;;;;5072619;28;20766;-90
2021/12/13 07:56:02;;;;;;;25.27;5.57;;;8.10;99.90;;;;;;5072182;28;20483;-90
2021/12/13 07:58:40;;;;;;;15.88;5.10;;;8.10;99.90;;;;;;5055260;28;20475;-91
2021/12/13 08:01:16;;;;;;;8.57;5.68;;;8.10;99.90;;;;;;5072916;28;20021;-91
2021/12/13 08:03:56;;;;;;;11.90;5.15;;;8.10;99.90;;;;;;5054774;28;20025;-90
2021/12/13 08:06:28;;;;;;;8.20;5.10;;;8.10;99.90;;;;;;5054023;28;20036;-91
2021/12/13 08:08:58;;;;;;;14.05;6.10;;;8.00;99.90;;;;;;5053705;28;20060;-90
2021/12/13 08:11:50;;;;;;;37.50;6.68;;;8.00;99.90;;;;;;5054040;28;20396;-90
2021/12/13 08:14:30;;;;;;;47.42;6.65;;;8.00;99.90;;;;;;5072620;28;20031;-90
2021/12/13 08:17:06;;;;;;;26.35;6.97;;;8.00;99.90;;;;;;5071434;28;20059;-90
2021/12/13 08:19:33;;;;;;;21.40;5.95;;;8.00;99.90;;;;;;5071827;28;20477;-90
2021/12/13 08:22:01;;;;;;;15.63;5.43;;;7.90;99.90;;;;;;5053821;28;20119;-90
2021/12/13 08:24:33;;;;;;;14.35;6.18;;;7.90;99.90;;;;;;5071446;28;20043;-89
2021/12/13 08:27:12;;;;;;;21.70;5.93;;;7.90;99.90;;;;;;5071202;28;20033;-89
2021/12/13 08:29:44;;;;;;;69.25;13.60;;;7.90;99.90;;;;;;5072047;28;20534;-91
2021/12/13 08:32:15;;;;;;;17.70;5.95;;;7.90;99.90;;;;;;5071793;28;20588;-89
2021/12/13 08:34:56;;;;;;;18.70;6.05;;;8.00;99.90;;;;;;5072117;28;20028;-89
2021/12/13 08:37:22;;;;;;;9.45;5.93;;;8.00;99.90;;;;;;5053388;28;20051;-89
2021/12/13 08:39:53;;;;;;;20.98;5.47;;;7.90;99.90;;;;;;5053262;28;20539;-95
2021/12/13 08:42:23;;;;;;;7.07;5.20;;;7.90;99.90;;;;;;5071203;28;20784;-89
2021/12/13 08:44:55;;;;;;;15.30;6.75;;;8.00;99.90;;;;;;5071001;28;20089;-90
2021/12/13 08:47:32;;;;;;;6.82;4.82;;;8.00;99.90;;;;;;5052188;28;20574;-89
2021/12/13 08:50:05;;;;;;;8.07;5.68;;;8.10;99.90;;;;;;5071183;28;20262;-89
2021/12/13 08:52:37;;;;;;;7.72;5.20;;;8.20;99.90;;;;;;5052965;28;20025;-89
2021/12/13 08:55:20;;;;;;;10.45;6.82;;;8.20;99.90;;;;;;5071487;28;20042;-89
2021/12/13 08:57:55;;;;;;;12.77;9.00;;;8.30;99.90;;;;;;5071175;28;20492;-90
2021/12/13 09:00:41;;;;;;;9.23;5.65;;;8.40;99.90;;;;;;5053288;28;20515;-89
2021/12/13 09:03:33;;;;;;;12.52;5.90;;;8.20;99.90;;;;;;5070792;28;20054;-89
2021/12/13 09:06:11;;;;;;;6.60;4.93;;;8.30;99.90;;;;;;5067103;28;20043;-89
2021/12/13 09:08:44;;;;;;;9.50;5.13;;;8.40;99.90;;;;;;5070725;28;20489;-90
2021/12/13 09:11:34;;;;;;;18.70;4.95;;;8.50;99.90;;;;;;5070743;28;20020;-89
2021/12/13 09:14:13;;;;;;;29.90;6.03;;;8.50;99.90;;;;;;5052708;28;20056;-90
2021/12/13 09:16:55;;;;;;;16.73;5.13;;;8.50;99.90;;;;;;5072052;28;20017;-91
2021/12/13 09:19:29;;;;;;;10.05;6.30;;;8.50;99.90;;;;;;5053294;28;20553;-90
2021/12/13 09:21:58;;;;;;;7.57;5.10;;;8.40;99.90;;;;;;5053445;28;20170;-91
2021/12/13 09:24:33;;;;;;;14.15;5.30;;;8.50;99.90;;;;;;5052740;28;20059;-90
2021/12/13 09:27:09;;;;;;;8.68;5.38;;;8.60;99.90;;;;;;5071095;28;20032;-89
2021/12/13 09:29:57;;;;;;;6.95;4.43;;;8.60;99.90;;;;;;5072132;28;20045;-90
2021/12/13 09:32:49;;;;;;;8.93;5.57;;;8.60;99.90;;;;;;5072506;28;20016;-90
2021/12/13 09:35:39;;;;;;;8.80;5.30;;;8.60;99.90;;;;;;5043452;28;20145;-91
2021/12/13 09:38:29;;;;;;;11.32;6.03;;;8.60;99.90;;;;;;5071381;28;20020;-91
2021/12/13 09:41:08;;;;;;;11.15;6.32;;;8.70;99.90;;;;;;5053451;28;20032;-91
2021/12/13 09:43:51;;;;;;;11.05;6.00;;;8.70;99.90;;;;;;5071287;28;20024;-93
2021/12/13 09:46:43;;;;;;;10.67;6.83;;;8.70;99.90;;;;;;5070860;28;20133;-91
2021/12/13 09:49:29;;;;;;;8.73;6.50;;;8.70;99.90;;;;;;5071164;28;20051;-91
2021/12/13 09:52:12;;;;;;;8.00;5.80;;;8.80;99.90;;;;;;5053750;28;20020;-91
2021/12/13 09:54:48;;;;;;;9.63;5.55;;;8.80;99.90;;;;;;5053313;28;20373;-90
2021/12/13 09:57:19;;;;;;;8.32;5.78;;;8.70;99.90;;;;;;5072236;28;20577;-91
2021/12/13 09:59:49;;;;;;;10.35;6.82;;;8.80;99.90;;;;;;5057176;28;20438;-91
2021/12/13 10:02:23;;;;;;;9.40;6.13;;;8.80;99.90;;;;;;5074622;28;20103;-93
2021/12/13 10:04:50;;;;;;;8.13;5.90;;;8.90;99.90;;;;;;5056657;28;20070;-90
2021/12/13 10:07:30;;;;;;;7.57;5.47;;;9.00;99.90;;;;;;5056348;28;20030;-91
2021/12/13 10:10:05;;;;;;;8.80;6.03;;;8.90;99.90;;;;;;5074507;28;20273;-92
2021/12/13 10:12:39;;;;;;;8.25;5.82;;;9.00;99.90;;;;;;5057550;28;20504;-90
2021/12/13 10:15:07;;;;;;;;;;;9.10;99.90;;;;;;5076040;28;20059;-90
2021/12/13 10:17:39;;;;;;;8.43;5.50;;;9.10;99.90;;;;;;5056525;28;20351;-92
2021/12/13 10:20:31;;;;;;;8.48;5.50;;;9.10;99.90;;;;;;5040619;28;20105;-92
2021/12/13 10:22:57;;;;;;;7.85;5.63;;;9.10;99.90;;;;;;5050505;28;20025;-92
2021/12/13 10:25:36;;;;;;;8.85;6.68;;;9.20;99.90;;;;;;5075554;28;20050;-91
2021/12/13 10:28:06;;;;;;;8.88;6.85;;;9.30;99.90;;;;;;5057999;28;20123;-92
2021/12/13 10:30:36;;;;;;;10.38;6.95;;;9.30;99.90;;;;;;5057073;28;20028;-91
2021/12/13 10:33:04;;;;;;;8.10;6.07;;;9.40;99.90;;;;;;5074942;28;20021;-91
2021/12/13 10:35:37;;;;;;;9.10;6.75;;;9.60;99.90;;;;;;5076087;28;20103;-91
2021/12/13 10:38:13;;;;;;;8.50;6.57;;;9.70;99.90;;;;;;5057933;28;20374;-93
2021/12/13 10:40:47;;;;;;;8.65;6.97;;;9.80;99.90;;;;;;5075840;28;20036;-92
2021/12/13 10:43:32;;;;;;;9.18;6.50;;;9.90;99.90;;;;;;5039673;28;20161;-90
2021/12/13 10:46:07;;;;;;;6.78;5.53;;;10.10;99.90;;;;;;5074023;28;20031;-90
2021/12/13 10:48:35;;;;;;;7.07;5.45;;;10.20;99.90;;;;;;5073753;28;20043;-90
2021/12/13 10:51:10;;;;;;;8.85;6.53;;;10.30;99.90;;;;;;5056315;28;20028;-89
2021/12/13 10:53:39;;;;;;;8.93;7.18;;;10.30;99.90;;;;;;5072069;28;20027;-90
2021/12/13 10:56:14;;;;;;;10.68;8.30;;;10.30;99.90;;;;;;5073709;28;20028;-90
2021/12/13 10:58:45;;;;;;;10.25;8.20;;;10.30;99.90;;;;;;5073241;28;20500;-90
2021/12/13 11:01:30;;;;;;;10.52;8.65;;;10.50;99.90;;;;;;5055542;28;20019;-90
2021/12/13 11:03:57;;;;;;;10.63;8.65;;;10.30;99.90;;;;;;5074014;28;20032;-90
2021/12/13 11:06:24;;;;;;;11.98;9.88;;;10.30;99.90;;;;;;5073579;28;20024;-90
2021/12/13 11:08:51;;;;;;;11.10;9.50;;;10.30;99.90;;;;;;5053920;28;20378;-89
2021/12/13 11:11:29;;;;;;;11.13;9.23;;;10.30;99.90;;;;;;5053552;28;20048;-90
2021/12/13 11:13:59;;;;;;;11.63;9.02;;;10.30;99.90;;;;;;5053715;28;20029;-90
2021/12/13 11:16:31;;;;;;;11.23;9.18;;;10.30;99.90;;;;;;5071684;28;20021;-90
2021/12/13 11:18:57;;;;;;;8.63;7.72;;;10.30;99.90;;;;;;5054083;28;20408;-90
2021/12/13 11:21:34;;;;;;;8.95;7.50;;;10.40;99.90;;;;;;5054324;28;20035;-90
2021/12/13 11:24:01;;;;;;;10.23;7.80;;;10.50;99.90;;;;;;5076542;28;20032;-90
2021/12/13 11:26:31;;;;;;;8.07;6.15;;;10.70;99.90;;;;;;5075194;28;20032;-90
2021/12/13 11:29:00;;;;;;;8.35;7.25;;;10.70;99.90;;;;;;5074995;28;20025;-90
2021/12/13 11:31:29;;;;;;;8.80;7.82;;;10.70;99.90;;;;;;5093839;28;20017;-90
2021/12/13 11:34:01;;;;;;;9.02;7.53;;;10.60;99.90;;;;;;5078432;28;20031;-90
2021/12/13 11:37:04;;;;;;;9.98;6.78;;;10.60;99.90;;;;;;5080207;28;20076;-90
2021/12/13 11:39:33;;;;;;;9.90;6.00;;;10.70;99.90;;;;;;5097627;28;20260;-91
2021/12/13 11:42:04;;;;;;;7.20;5.35;;;10.70;99.90;;;;;;5097778;28;20016;-91
2021/12/13 11:44:53;;;;;;;8.27;6.05;;;10.70;99.90;;;;;;5097883;28;20039;-91
2021/12/13 11:47:40;;;;;;;22.25;11.18;;;10.90;99.90;;;;;;5079966;28;20037;-91
2021/12/13 11:50:43;;;;;;;7.72;6.45;;;11.20;99.90;;;;;;5097368;28;20285;-90
2021/12/13 11:53:37;;;;;;;7.53;5.75;;;11.50;99.90;;;;;;5097679;28;20092;-90
2021/12/13 11:56:40;;;;;;;5.93;4.60;;;11.50;99.90;;;;;;5080008;28;20017;-90
2021/12/13 11:59:27;;;;;;;9.02;6.00;;;11.50;99.90;;;;;;5080172;28;20349;-89
2021/12/13 12:02:02;;;;;;;7.63;6.38;;;11.50;99.90;;;;;;5079919;28;20251;-91
2021/12/13 12:05:06;;;;;;;6.90;5.78;;;11.50;99.90;;;;;;5080208;28;20074;-91
2021/12/13 12:08:07;;;;;;;6.43;5.72;;;11.60;99.90;;;;;;5097402;28;20021;-91
2021/12/13 12:11:10;;;;;;;6.55;5.55;;;11.50;99.90;;;;;;5097321;28;20028;-91
2021/12/13 12:13:50;;;;;;;7.43;5.57;;;11.40;99.90;;;;;;5078563;28;20031;-91
2021/12/13 12:16:19;;;;;;;7.18;5.65;;;11.30;99.90;;;;;;5056632;28;20107;-92
2021/12/13 12:18:44;;;;;;;5.78;4.70;;;11.20;99.90;;;;;;5056845;28;20069;-92
2021/12/13 12:21:33;;;;;;;6.93;5.60;;;11.20;99.90;;;;;;5073331;28;20029;-91
2021/12/13 12:24:02;;;;;;;6.40;4.85;;;11.30;99.90;;;;;;5062308;28;20512;-91
2021/12/13 12:26:29;;;;;;;7.13;5.72;;;11.30;99.90;;;;;;5087621;28;20033;-91
2021/12/13 12:29:03;;;;;;;10.20;5.75;;;11.40;99.90;;;;;;5073431;28;20051;-91
2021/12/13 12:31:32;;;;;;;7.35;5.78;;;11.50;99.90;;;;;;5074295;28;20027;-92
2021/12/13 12:33:59;;;;;;;7.13;5.70;;;11.50;99.90;;;;;;5075350;28;20036;-91
2021/12/13 12:36:38;;;;;;;8.38;6.55;;;11.50;99.90;;;;;;5054981;28;20027;-90
2021/12/13 12:39:06;;;;;;;8.77;6.05;;;11.50;99.90;;;;;;5072304;28;20107;-89
2021/12/13 12:41:40;;;;;;;8.52;6.88;;;11.40;99.90;;;;;;5071911;28;20369;-89
2021/12/13 12:44:06;;;;;;;7.35;5.50;;;11.50;99.90;;;;;;5071323;28;20032;-90
2021/12/13 12:46:39;;;;;;;8.18;5.43;;;11.50;99.90;;;;;;5053567;28;20128;-89
2021/12/13 12:49:17;;;;;;;7.60;4.90;;;11.50;99.90;;;;;;5070967;28;20044;-91
2021/12/13 12:51:45;;;;;;;8.43;5.68;;;11.60;99.90;;;;;;5053568;28;20049;-91
2021/12/13 12:54:18;;;;;;;6.35;4.82;;;11.60;99.90;;;;;;5054066;28;20028;-91
2021/12/13 12:56:53;;;;;;;6.68;4.55;;;11.70;99.90;;;;;;5071576;28;20032;-90
2021/12/13 12:59:29;;;;;;;7.43;4.72;;;11.80;99.90;;;;;;5071216;28;20457;-91
2021/12/13 13:02:04;;;;;;;5.90;4.75;;;11.80;99.90;;;;;;5053250;28;20440;-89
2021/12/13 13:04:40;;;;;;;5.88;4.25;;;11.90;99.90;;;;;;5071411;28;20033;-92
2021/12/13 13:07:19;;;;;;;7.10;4.30;;;11.90;99.90;;;;;;5071301;28;20351;-91
2021/12/13 13:09:53;;;;;;;5.65;4.60;;;11.90;99.90;;;;;;5071120;28;20033;-92
2021/12/13 13:12:28;;;;;;;8.73;4.20;;;11.90;99.90;;;;;;5071050;28;20037;-92
2021/12/13 13:15:04;;;;;;;5.95;3.95;;;12.00;99.90;;;;;;5053112;28;20044;-92
2021/12/13 13:17:36;;;;;;;6.60;3.78;;;12.00;99.90;;;;;;5053204;28;20029;-91
2021/12/13 13:20:09;;;;;;;7.35;4.53;;;12.10;99.90;;;;;;5053310;28;20027;-91
2021/12/13 13:22:38;;;;;;;6.15;4.90;;;12.10;99.90;;;;;;5053556;28;20034;-91
2021/12/13 13:25:28;;;;;;;7.00;4.45;;;12.10;99.90;;;;;;5071096;28;20044;-92
2021/12/13 13:27:54;;;;;;;4.60;4.07;;;12.10;99.90;;;;;;5070710;28;20122;-92
2021/12/13 13:30:29;;;;;;;5.10;3.80;;;12.20;99.90;;;;;;5070918;28;20476;-91
2021/12/13 13:32:55;;;;;;;7.32;3.97;;;12.20;99.90;;;;;;5054927;28;20393;-92
2021/12/13 13:35:22;;;;;;;5.32;3.83;;;12.30;99.90;;;;;;5058481;28;20031;-90